ROMMA est une association bénévole à but non lucratif. Votre soutien est indispensable : ADHERER à ROMMA ou FAIRE un DON

Crest - (26, Drôme)

Vallée de la Drôme (315 m)   Longitude: 5°2' E   Latitude: 44°44' N Station partenaire n°62
 

Détail journalier du     <<     >>

Température Precipitation Humidité Pression Vent Dir Rafale Dir. rafale Ensol.
Heure (°C) (mm) (%) (hPa) (km/h) (km/h) (min)
01:00 2.508610345SO19SO0
02:00 1.908910341ENE8SO0
03:00 1.909010341S5S0
04:00 1.809210341SSE8SSE0
05:00 1.209210341SSE3SSE0
06:00 2.209210341SSE5SSE0
07:00 1.709310341SSE3SSE0
08:00 2.2092103503SSE0
09:00 2.109010352ENE10ENE0
10:00 3.108810354NE10NNE35
11:00 4.108210353E6ENE44
12:00 4.308110352E8S19
13:00 5.107910343SSO10SSE17
14:00 5.707410336NE19NE53
15:00 5.807510339SSO23NNO58
16:00 6.1074103312SSO23SO59
17:00 4.6080103312SSO23SSO37
18:00 3.7083103314SSO24SO0
19:00 3.3085103312SSO23SSO0
20:00 2.408710344SSO13SO0
21:00 1.108910342SSO10SSO0
22:00 0.608910344SSO16SO0
23:00 0.909110341---3ENE0
minuit 1.109210341---5NE0

Graphique du 29-12-2019

 

Serveur OMMA